Time;durP1;ratioP1;P1;durP2;ratioP2;P2;SDS_P1;SDS_P2;PMS_P1;PMS_P2;Temp;Humidity;BMP_temperature;BMP_pressure;BME280_temperature;BME280_humidity;BME280_pressure;Samples;Min_cycle;Max_cycle;Signal;HPM_P1;HPM_P2
2022/07/12 00:02:04;;;;;;;2.90;1.00;;;23.30;99.90;;;;;;1895281;75;21225;-87
2022/07/12 00:04:55;;;;;;;2.77;1.00;;;23.30;99.90;;;;;;1895172;74;21178;-87
2022/07/12 00:07:47;;;;;;;2.30;1.00;;;23.30;99.90;;;;;;1900952;74;21168;-87
2022/07/12 00:10:38;;;;;;;2.90;0.80;;;23.30;99.90;;;;;;1897958;75;21102;-87
2022/07/12 00:13:31;;;;;;;2.22;1.02;;;23.30;99.90;;;;;;1903081;74;21136;-87
2022/07/12 00:16:23;;;;;;;0.82;0.80;;;23.30;99.90;;;;;;1893912;74;21056;-86
2022/07/12 00:19:15;;;;;;;2.40;0.90;;;23.30;99.90;;;;;;1894723;75;21067;-87
2022/07/12 00:22:07;;;;;;;2.98;1.10;;;23.30;99.90;;;;;;1896166;75;21143;-87
2022/07/12 00:24:58;;;;;;;4.67;1.15;;;23.30;99.90;;;;;;1894881;75;21551;-87
2022/07/12 00:27:50;;;;;;;3.45;1.00;;;23.30;99.90;;;;;;1890996;75;21173;-87
2022/07/12 00:30:42;;;;;;;1.67;1.10;;;23.30;99.90;;;;;;1899721;75;21095;-87
2022/07/12 00:33:35;;;;;;;1.50;0.90;;;23.20;99.90;;;;;;1899343;75;21125;-87
2022/07/12 00:36:27;;;;;;;1.75;1.07;;;23.20;99.90;;;;;;1898153;75;21065;-87
2022/07/12 00:39:20;;;;;;;3.12;1.20;;;22.90;99.90;;;;;;1890084;76;21091;-86
2022/07/12 00:42:11;;;;;;;3.05;1.00;;;22.90;99.90;;;;;;1892415;75;21150;-87
2022/07/12 00:45:03;;;;;;;4.30;1.05;;;22.90;99.90;;;;;;1895073;75;21137;-86
2022/07/12 00:47:56;;;;;;;2.80;1.10;;;23.00;99.90;;;;;;1906056;74;21511;-87
2022/07/12 00:50:47;;;;;;;1.35;1.20;;;23.00;99.90;;;;;;1890132;74;21099;-86
2022/07/12 00:53:39;;;;;;;3.02;1.30;;;23.00;99.90;;;;;;1903849;75;21056;-87
2022/07/12 00:56:30;;;;;;;3.40;1.45;;;23.00;99.90;;;;;;1895265;75;21177;-87
2022/07/12 00:59:22;;;;;;;2.75;1.50;;;23.00;99.90;;;;;;1897188;75;21515;-87
2022/07/12 01:02:13;;;;;;;1.95;1.20;;;23.10;99.90;;;;;;1903213;75;21141;-86
2022/07/12 01:05:08;;;;;;;1.70;1.10;;;23.10;99.90;;;;;;1915372;74;21134;-87
2022/07/12 01:08:00;;;;;;;1.30;1.12;;;23.10;99.90;;;;;;1920912;74;21052;-86
2022/07/12 01:10:52;;;;;;;2.20;1.40;;;23.10;99.90;;;;;;1947624;73;21158;-87
2022/07/12 01:13:45;;;;;;;3.92;1.20;;;23.00;99.90;;;;;;1931785;73;21099;-86
2022/07/12 01:16:38;;;;;;;2.17;1.10;;;23.00;99.90;;;;;;1924562;74;21556;-87
2022/07/12 01:19:31;;;;;;;4.15;1.37;;;23.00;99.90;;;;;;1924399;73;21176;-86
2022/07/12 01:22:27;;;;;;;3.80;1.20;;;23.00;99.90;;;;;;1924455;73;21127;-86
2022/07/12 01:25:18;;;;;;;4.15;1.37;;;22.90;99.90;;;;;;1911571;75;21040;-86
2022/07/12 01:28:10;;;;;;;1.15;0.90;;;22.90;99.90;;;;;;1924617;74;21103;-87
2022/07/12 01:31:02;;;;;;;2.75;1.07;;;22.90;99.90;;;;;;1915941;73;21080;-87
2022/07/12 01:33:54;;;;;;;1.80;1.20;;;22.90;99.90;;;;;;1936418;74;21646;-88
2022/07/12 01:36:46;;;;;;;2.37;1.20;;;22.90;99.90;;;;;;1933521;74;21482;-87
2022/07/12 01:39:37;;;;;;;2.25;1.15;;;22.90;99.90;;;;;;1913425;75;21157;-87
2022/07/12 01:42:30;;;;;;;2.80;1.27;;;22.80;99.90;;;;;;1936375;74;21068;-87
2022/07/12 01:45:23;;;;;;;1.90;1.30;;;22.80;99.90;;;;;;1897982;75;21126;-86
2022/07/12 01:48:15;;;;;;;2.80;1.30;;;22.80;99.90;;;;;;1899876;75;21063;-87
2022/07/12 01:51:06;;;;;;;2.50;1.55;;;22.80;99.90;;;;;;1890186;76;21092;-87
2022/07/12 01:53:58;;;;;;;1.87;0.90;;;22.70;99.90;;;;;;1912380;75;21180;-86
2022/07/12 01:56:49;;;;;;;3.08;1.40;;;22.70;99.90;;;;;;1911671;74;21157;-86
2022/07/12 01:59:41;;;;;;;1.92;1.32;;;22.70;99.90;;;;;;1913614;75;21181;-87
2022/07/12 02:02:33;;;;;;;2.55;1.27;;;22.70;99.90;;;;;;1912373;75;21075;-87
2022/07/12 02:05:25;;;;;;;3.25;1.30;;;22.70;99.90;;;;;;1912374;75;21063;-86
2022/07/12 02:08:17;;;;;;;1.22;0.93;;;22.60;99.90;;;;;;1936197;74;21062;-86
2022/07/12 02:11:08;;;;;;;2.67;0.90;;;22.70;99.90;;;;;;1911628;75;21044;-86
2022/07/12 02:14:02;;;;;;;5.00;1.20;;;22.60;99.90;;;;;;1911685;75;21095;-86
2022/07/12 02:16:54;;;;;;;1.07;0.98;;;22.60;99.90;;;;;;1912285;75;21064;-86
2022/07/12 02:19:48;;;;;;;2.40;1.20;;;22.60;99.90;;;;;;1936132;74;21068;-86
2022/07/12 02:22:40;;;;;;;1.55;1.00;;;22.60;99.90;;;;;;1913432;75;21055;-86
2022/07/12 02:25:32;;;;;;;2.12;1.00;;;22.60;99.90;;;;;;1912250;75;21134;-86
2022/07/12 02:28:25;;;;;;;1.82;1.07;;;22.50;99.90;;;;;;1913425;75;21087;-86
2022/07/12 02:31:16;;;;;;;3.02;1.50;;;22.50;99.90;;;;;;1911430;75;21058;-86
2022/07/12 02:34:07;;;;;;;2.72;1.07;;;22.40;99.90;;;;;;1912997;75;21080;-86
2022/07/12 02:37:00;;;;;;;1.77;1.00;;;22.40;99.90;;;;;;1919260;74;21048;-86
2022/07/12 02:40:52;;;;;;;2.80;1.30;;;22.30;99.90;;;;;;1931183;73;21102;-86
2022/07/12 02:42:46;;;;;;;3.47;1.17;;;22.40;99.90;;;;;;1912877;75;21153;-86
2022/07/12 02:45:37;;;;;;;2.30;1.07;;;22.30;99.90;;;;;;1911765;75;21066;-87
2022/07/12 02:48:29;;;;;;;4.12;1.10;;;22.30;99.90;;;;;;1912078;75;21051;-86
2022/07/12 02:51:21;;;;;;;2.90;1.10;;;22.30;99.90;;;;;;1911563;75;21157;-87
2022/07/12 02:54:12;;;;;;;2.12;1.00;;;22.20;99.90;;;;;;1926100;74;21087;-87
2022/07/12 02:57:04;;;;;;;2.77;1.42;;;22.20;99.90;;;;;;1916217;73;21097;-86
2022/07/12 02:59:56;;;;;;;1.42;0.88;;;22.20;99.90;;;;;;1911960;75;21094;-86
2022/07/12 03:02:47;;;;;;;2.27;1.05;;;22.20;99.90;;;;;;1912707;75;21627;-86
2022/07/12 03:05:44;;;;;;;2.17;1.05;;;22.20;99.90;;;;;;1926604;74;21092;-87
2022/07/12 03:08:42;;;;;;;2.10;1.00;;;22.20;99.90;;;;;;1909424;74;21171;-86
2022/07/12 03:11:34;;;;;;;1.70;1.07;;;22.20;99.90;;;;;;1907991;74;21118;-86
2022/07/12 03:14:30;;;;;;;2.40;1.17;;;22.20;99.90;;;;;;1906943;74;21062;-87
2022/07/12 03:17:25;;;;;;;1.82;1.30;;;22.10;99.90;;;;;;1917713;74;21132;-87
2022/07/12 03:20:17;;;;;;;1.50;1.40;;;22.10;99.90;;;;;;1904753;75;21114;-87
2022/07/12 03:23:09;;;;;;;2.20;1.15;;;22.10;99.90;;;;;;1904894;75;21145;-87
2022/07/12 03:26:09;;;;;;;1.62;1.22;;;22.00;99.90;;;;;;1905662;74;21178;-87
2022/07/12 03:29:07;;;;;;;3.77;1.70;;;22.10;99.90;;;;;;1904607;75;21132;-86
2022/07/12 03:32:01;;;;;;;4.47;1.60;;;22.10;99.90;;;;;;1904983;75;21206;-87
2022/07/12 03:34:56;;;;;;;1.95;1.52;;;22.00;99.90;;;;;;1904601;75;21055;-86
2022/07/12 03:37:52;;;;;;;1.70;1.20;;;21.90;99.90;;;;;;1904761;75;21117;-87
2022/07/12 03:40:48;;;;;;;4.55;1.90;;;21.90;99.90;;;;;;1927062;74;21235;-87
2022/07/12 03:43:47;;;;;;;2.85;1.60;;;21.90;99.90;;;;;;1904647;75;21103;-87
2022/07/12 03:46:43;;;;;;;1.50;1.40;;;21.90;99.90;;;;;;1904786;75;21056;-87
2022/07/12 03:49:38;;;;;;;3.05;1.17;;;21.80;99.90;;;;;;1883026;75;21092;-86
2022/07/12 03:52:32;;;;;;;1.80;1.40;;;21.80;99.90;;;;;;1917623;74;21160;-87
2022/07/12 03:55:27;;;;;;;1.92;1.40;;;21.80;99.90;;;;;;1881720;75;21179;-87
2022/07/12 03:58:24;;;;;;;3.95;1.52;;;21.70;99.90;;;;;;1908584;74;21083;-86
2022/07/12 04:01:16;;;;;;;2.90;1.60;;;21.70;99.90;;;;;;1916850;74;21152;-87
2022/07/12 04:04:11;;;;;;;4.42;1.50;;;21.70;99.90;;;;;;1922141;74;21126;-86
2022/07/12 04:07:04;;;;;;;2.50;1.55;;;21.60;99.90;;;;;;1904578;75;21103;-86
2022/07/12 04:09:59;;;;;;;3.35;1.77;;;21.50;99.90;;;;;;1912578;74;21099;-87
2022/07/12 04:12:54;;;;;;;2.72;1.30;;;21.50;99.90;;;;;;1912184;74;21062;-86
2022/07/12 04:15:47;;;;;;;2.15;1.45;;;21.50;99.90;;;;;;1910105;74;21063;-86
2022/07/12 04:18:40;;;;;;;4.78;1.25;;;21.50;99.90;;;;;;1913300;74;21057;-86
2022/07/12 04:21:33;;;;;;;5.03;1.37;;;21.50;99.90;;;;;;1904798;75;21080;-86
2022/07/12 04:24:27;;;;;;;3.65;1.60;;;21.50;99.90;;;;;;1904685;75;21051;-86
2022/07/12 04:27:26;;;;;;;1.87;1.22;;;21.40;99.90;;;;;;1927062;74;21117;-86
2022/07/12 04:30:19;;;;;;;2.30;1.25;;;21.50;99.90;;;;;;1904370;75;21066;-86
2022/07/12 04:33:12;;;;;;;2.35;1.20;;;21.50;99.90;;;;;;1904727;75;21119;-86
2022/07/12 04:36:06;;;;;;;3.33;1.20;;;21.50;99.90;;;;;;1916033;74;21050;-86
2022/07/12 04:39:01;;;;;;;2.98;1.37;;;21.40;99.90;;;;;;1909317;74;21063;-86
2022/07/12 04:41:59;;;;;;;1.72;1.17;;;21.50;99.90;;;;;;1927439;74;21095;-86
2022/07/12 04:44:53;;;;;;;2.98;1.35;;;21.50;99.90;;;;;;1925934;74;21106;-86
2022/07/12 04:47:51;;;;;;;2.00;1.35;;;21.50;99.90;;;;;;1904610;75;21052;-86
2022/07/12 04:50:45;;;;;;;1.30;1.10;;;21.50;99.90;;;;;;1883401;75;21160;-86
2022/07/12 04:53:41;;;;;;;3.60;1.52;;;21.50;99.90;;;;;;1926914;74;21142;-86
2022/07/12 04:56:38;;;;;;;2.58;1.30;;;21.50;99.90;;;;;;1927381;74;21047;-86
2022/07/12 04:59:31;;;;;;;4.00;1.40;;;21.50;99.90;;;;;;1904863;75;21098;-86
2022/07/12 05:02:24;;;;;;;3.42;1.50;;;21.50;99.90;;;;;;1904564;75;21542;-86
2022/07/12 05:05:20;;;;;;;3.60;1.40;;;21.60;99.90;;;;;;1911226;74;21108;-86
2022/07/12 05:08:16;;;;;;;3.30;1.10;;;21.70;99.90;;;;;;1919088;74;21094;-86
2022/07/12 05:11:09;;;;;;;2.33;1.35;;;21.70;99.90;;;;;;1890433;75;21164;-86
2022/07/12 05:14:02;;;;;;;1.82;1.25;;;21.70;99.90;;;;;;1882494;74;21048;-86
2022/07/12 05:16:57;;;;;;;3.60;1.50;;;21.70;99.90;;;;;;1901458;75;21122;-86
2022/07/12 05:19:55;;;;;;;2.40;1.40;;;21.70;99.90;;;;;;1895539;74;21156;-86
2022/07/12 05:22:49;;;;;;;3.40;1.60;;;21.70;99.90;;;;;;1894850;74;21208;-86
2022/07/12 05:25:42;;;;;;;2.92;1.00;;;21.70;99.90;;;;;;1904075;75;21084;-86
2022/07/12 05:28:36;;;;;;;4.20;1.52;;;21.80;99.90;;;;;;1884538;76;21086;-87
2022/07/12 05:31:29;;;;;;;1.75;1.12;;;21.90;99.90;;;;;;1902248;75;21080;-86
2022/07/12 05:34:26;;;;;;;2.47;1.30;;;22.00;99.90;;;;;;1905853;74;21554;-86
2022/07/12 05:37:19;;;;;;;3.40;1.40;;;22.00;99.90;;;;;;1890076;76;21121;-86
2022/07/12 05:40:16;;;;;;;2.85;1.40;;;21.90;99.90;;;;;;1911829;74;21095;-86
2022/07/12 05:43:08;;;;;;;6.83;1.57;;;21.90;99.90;;;;;;1908245;74;21052;-87
2022/07/12 05:46:02;;;;;;;8.10;1.65;;;21.80;99.90;;;;;;1901233;75;21055;-86
2022/07/12 05:48:59;;;;;;;4.10;1.50;;;21.80;99.90;;;;;;1922425;74;21176;-87
2022/07/12 05:55:06;;;;;;;2.22;1.20;;;21.80;99.90;;;;;;1914018;75;21051;-86
2022/07/12 05:58:00;;;;;;;3.65;1.30;;;21.80;99.90;;;;;;1907261;75;21084;-80
2022/07/12 06:00:57;;;;;;;1.65;1.20;;;21.80;99.90;;;;;;1887943;74;21048;-80
2022/07/12 06:03:49;;;;;;;2.72;1.30;;;21.80;99.90;;;;;;1919831;74;21204;-80
2022/07/12 06:06:42;;;;;;;2.40;1.10;;;21.80;99.90;;;;;;1910706;74;21574;-80
2022/07/12 06:09:34;;;;;;;8.83;1.30;;;21.70;99.90;;;;;;1912229;75;21049;-80
2022/07/12 06:12:30;;;;;;;3.87;1.35;;;21.70;99.90;;;;;;1932763;74;21120;-79
2022/07/12 06:15:24;;;;;;;2.65;1.50;;;21.80;99.90;;;;;;1912479;75;21099;-80
2022/07/12 06:18:18;;;;;;;4.33;1.30;;;21.80;99.90;;;;;;1913032;75;21067;-80
2022/07/12 06:21:11;;;;;;;2.08;1.30;;;21.80;99.90;;;;;;1896113;75;21125;-80
2022/07/12 06:24:05;;;;;;;2.77;1.40;;;22.00;99.90;;;;;;1900834;75;21132;-80
2022/07/12 06:26:59;;;;;;;4.65;1.52;;;22.10;99.90;;;;;;1911136;75;21128;-80
2022/07/12 06:29:53;;;;;;;4.40;1.50;;;22.20;99.90;;;;;;1909832;75;21071;-80
2022/07/12 06:32:46;;;;;;;3.75;1.30;;;22.20;99.90;;;;;;1930270;74;21068;-80
2022/07/12 06:35:45;;;;;;;2.17;1.30;;;22.30;99.90;;;;;;1909246;75;21147;-80
2022/07/12 06:38:39;;;;;;;5.08;1.42;;;22.30;99.90;;;;;;1913047;75;21117;-80
2022/07/12 06:41:32;;;;;;;3.50;1.45;;;22.30;99.90;;;;;;1912511;75;21118;-80
2022/07/12 06:44:26;;;;;;;5.60;1.72;;;22.40;99.90;;;;;;1926955;74;21067;-80
2022/07/12 06:47:20;;;;;;;3.70;1.50;;;22.50;99.90;;;;;;1939116;73;21091;-80
2022/07/12 06:50:15;;;;;;;3.60;1.17;;;22.60;99.90;;;;;;1938163;73;21071;-80
2022/07/12 06:53:09;;;;;;;2.75;1.55;;;22.60;99.90;;;;;;1911808;75;21184;-80
2022/07/12 06:56:01;;;;;;;6.35;1.45;;;22.60;99.90;;;;;;1921149;74;21072;-80
2022/07/12 06:58:54;;;;;;;2.58;1.40;;;22.60;99.90;;;;;;1910324;75;21089;-84
2022/07/12 07:01:48;;;;;;;7.37;1.65;;;22.70;99.90;;;;;;1918230;74;21175;-84
2022/07/12 07:04:42;;;;;;;3.80;1.70;;;22.70;99.90;;;;;;1896174;75;21105;-85
2022/07/12 07:07:36;;;;;;;2.90;1.10;;;22.80;99.90;;;;;;1879335;75;21549;-85
2022/07/12 07:10:29;;;;;;;4.67;1.10;;;22.90;99.90;;;;;;1927464;74;21055;-84
2022/07/12 07:13:24;;;;;;;3.10;1.57;;;23.00;99.90;;;;;;1937349;73;21121;-84
2022/07/12 07:16:16;;;;;;;4.78;1.20;;;23.20;99.90;;;;;;1907420;75;21224;-84
2022/07/12 07:19:10;;;;;;;3.92;1.50;;;23.20;99.90;;;;;;1917059;75;21047;-76
2022/07/12 07:22:09;;;;;;;4.35;1.50;;;23.30;99.90;;;;;;1904721;75;21231;-76
2022/07/12 07:25:04;;;;;;;3.77;1.47;;;23.40;99.90;;;;;;1904389;75;21084;-76
2022/07/12 07:27:56;;;;;;;2.05;1.00;;;23.50;99.90;;;;;;1913838;74;21140;-75
2022/07/12 07:30:55;;;;;;;3.87;1.22;;;23.50;99.90;;;;;;1912316;74;21051;-75
2022/07/12 07:33:51;;;;;;;4.97;1.40;;;23.60;99.90;;;;;;1904515;75;21095;-76
2022/07/12 07:36:44;;;;;;;5.92;1.30;;;23.60;99.90;;;;;;1904649;75;21051;-76
2022/07/12 07:39:38;;;;;;;3.15;1.12;;;23.70;99.90;;;;;;1904530;75;21091;-76
2022/07/12 07:42:31;;;;;;;5.53;1.50;;;23.70;99.90;;;;;;1926984;74;21192;-76
2022/07/12 07:45:28;;;;;;;8.08;1.60;;;23.90;99.90;;;;;;1904541;75;21095;-75
2022/07/12 07:48:20;;;;;;;3.70;1.57;;;24.00;99.90;;;;;;1904374;75;21131;-76
2022/07/12 07:51:16;;;;;;;3.67;1.60;;;24.00;99.90;;;;;;1904709;75;21164;-75
2022/07/12 07:54:08;;;;;;;3.33;1.45;;;24.10;99.90;;;;;;1917329;74;21573;-75
2022/07/12 07:57:04;;;;;;;2.12;1.32;;;24.20;99.90;;;;;;1907572;74;21134;-75
2022/07/12 07:59:56;;;;;;;4.10;1.30;;;24.30;99.90;;;;;;1904539;75;21098;-75
2022/07/12 08:02:59;;;;;;;3.30;1.55;;;24.30;99.90;;;;;;1925419;74;21062;-76
2022/07/12 08:05:57;;;;;;;3.55;1.20;;;24.40;99.90;;;;;;1904880;75;21137;-76
2022/07/12 08:08:48;;;;;;;2.42;1.40;;;24.50;99.90;;;;;;1924137;74;21059;-75
2022/07/12 08:11:44;;;;;;;5.65;1.42;;;24.50;99.90;;;;;;1912344;73;21913;-76
2022/07/12 08:14:38;;;;;;;3.92;1.32;;;24.60;99.90;;;;;;1933081;74;21633;-76
2022/07/12 08:17:33;;;;;;;3.37;1.20;;;24.70;99.90;;;;;;1913942;74;21109;-75
2022/07/12 08:20:26;;;;;;;2.35;1.15;;;24.80;99.90;;;;;;1928183;73;21067;-75
2022/07/12 08:23:20;;;;;;;7.10;1.52;;;24.90;99.90;;;;;;1913788;75;21070;-76
2022/07/12 08:26:11;;;;;;;3.30;1.40;;;25.00;99.90;;;;;;1934104;74;21099;-77
2022/07/12 08:29:03;;;;;;;3.77;1.37;;;25.10;99.90;;;;;;1909455;75;21139;-76
2022/07/12 08:31:55;;;;;;;2.37;1.30;;;25.20;99.90;;;;;;1934286;74;21088;-76
2022/07/12 08:34:46;;;;;;;1.52;0.95;;;25.30;99.90;;;;;;1904466;75;21478;-76
2022/07/12 08:37:38;;;;;;;5.20;1.17;;;25.30;99.90;;;;;;1927316;74;21076;-76
2022/07/12 08:40:29;;;;;;;4.28;2.10;;;25.40;99.90;;;;;;1904510;75;21067;-76
2022/07/12 08:43:20;;;;;;;2.77;1.10;;;25.50;99.90;;;;;;1904543;75;21055;-76
2022/07/12 08:46:15;;;;;;;3.05;1.20;;;25.60;99.90;;;;;;1904606;75;21064;-85
2022/07/12 08:49:09;;;;;;;3.75;1.00;;;25.60;99.90;;;;;;1904227;75;21091;-85
2022/07/12 08:52:02;;;;;;;3.67;1.20;;;25.70;99.90;;;;;;1927045;74;21170;-85
2022/07/12 08:59:20;;;;;;;4.33;1.45;;;25.80;99.90;;;;;;1888702;75;21091;-85
2022/07/12 09:02:11;;;;;;;3.95;1.35;;;25.80;99.90;;;;;;1917868;74;21518;-85
2022/07/12 09:05:11;;;;;;;6.25;1.70;;;25.80;99.90;;;;;;1914538;74;21134;-85
2022/07/12 09:08:06;;;;;;;5.37;1.30;;;25.90;99.90;;;;;;1912455;74;21067;-84
2022/07/12 09:11:00;;;;;;;8.23;1.42;;;26.00;99.90;;;;;;1904546;75;21132;-84
2022/07/12 09:13:53;;;;;;;3.37;1.10;;;26.10;99.90;;;;;;1921920;74;21145;-84
2022/07/12 09:16:45;;;;;;;9.23;1.15;;;26.30;99.90;;;;;;1904528;75;21149;-84
2022/07/12 09:19:37;;;;;;;2.33;1.10;;;26.30;99.90;;;;;;1926792;74;21133;-84
2022/07/12 09:22:28;;;;;;;2.83;1.00;;;26.40;99.90;;;;;;1904525;75;21102;-84
2022/07/12 09:25:20;;;;;;;1.80;0.90;;;26.50;99.90;;;;;;1904525;75;21114;-84
2022/07/12 09:28:11;;;;;;;3.15;1.32;;;26.40;99.90;;;;;;1904587;75;21056;-84
2022/07/12 09:31:04;;;;;;;2.12;1.02;;;26.50;99.90;;;;;;1926902;74;21059;-84
2022/07/12 09:37:13;;;;;;;4.60;1.50;;;26.60;99.90;;;;;;1904305;75;21565;-85
2022/07/12 09:40:09;;;;;;;6.58;1.67;;;26.70;99.90;;;;;;1926558;74;21118;-84
2022/07/12 09:43:01;;;;;;;5.95;1.42;;;26.80;99.90;;;;;;1920360;74;21118;-85
2022/07/12 09:45:52;;;;;;;3.05;1.07;;;26.80;99.90;;;;;;1904526;75;21146;-85
2022/07/12 09:48:45;;;;;;;2.02;1.10;;;26.80;99.90;;;;;;1927359;74;21103;-84
2022/07/12 09:51:45;;;;;;;3.10;1.07;;;26.80;99.90;;;;;;1904436;75;21056;-85
2022/07/12 09:54:52;;;;;;;4.25;1.10;;;26.80;99.90;;;;;;1836646;78;21565;-85
2022/07/12 09:57:45;;;;;;;0.98;0.82;;;26.80;99.90;;;;;;1904571;75;21064;-85
2022/07/12 10:00:37;;;;;;;3.72;1.20;;;26.90;99.90;;;;;;1918761;74;21059;-85
2022/07/12 10:03:31;;;;;;;3.80;1.10;;;27.00;99.90;;;;;;1929071;74;21195;-85
2022/07/12 10:06:26;;;;;;;3.75;1.17;;;27.00;99.90;;;;;;1904558;75;21048;-84
2022/07/12 10:09:20;;;;;;;3.53;1.20;;;27.00;99.90;;;;;;1904784;74;21236;-84
2022/07/12 10:12:14;;;;;;;2.75;1.27;;;27.00;99.90;;;;;;1904573;75;21494;-84
2022/07/12 10:15:09;;;;;;;4.42;1.40;;;27.10;99.90;;;;;;1904652;75;21098;-84
2022/07/12 10:18:05;;;;;;;1.87;1.15;;;27.20;99.90;;;;;;1904403;75;21529;-84
2022/07/12 10:20:57;;;;;;;2.42;1.10;;;27.20;99.90;;;;;;1904461;75;21052;-84
2022/07/12 10:23:48;;;;;;;3.80;1.42;;;27.40;99.90;;;;;;1904644;75;21059;-84
2022/07/12 10:26:40;;;;;;;4.22;1.25;;;27.60;99.90;;;;;;1904555;75;21063;-84
2022/07/12 10:29:31;;;;;;;4.47;1.47;;;27.60;99.90;;;;;;1927343;74;21112;-84
2022/07/12 10:32:25;;;;;;;3.87;1.30;;;27.60;99.90;;;;;;1904506;75;21061;-84
2022/07/12 10:35:19;;;;;;;3.52;1.35;;;27.60;99.90;;;;;;1904348;75;21589;-84
2022/07/12 10:38:21;;;;;;;8.65;1.80;;;27.70;99.90;;;;;;1904659;75;21058;-85
2022/07/12 10:41:20;;;;;;;3.90;1.30;;;27.70;99.90;;;;;;1904619;75;21231;-84
2022/07/12 10:44:11;;;;;;;2.83;1.27;;;27.70;99.90;;;;;;1927297;74;21185;-84
2022/07/12 10:47:04;;;;;;;5.45;1.10;;;27.80;99.90;;;;;;1908373;74;21055;-85
2022/07/12 10:49:59;;;;;;;4.50;1.07;;;27.80;99.90;;;;;;1916670;74;21125;-84
2022/07/12 10:52:55;;;;;;;2.77;1.00;;;27.90;99.90;;;;;;1904580;75;21095;-84
2022/07/12 10:56:09;;;;;;;1.95;1.02;;;28.00;99.90;;;;;;1904617;75;21059;-85
2022/07/12 10:59:01;;;;;;;2.12;0.90;;;28.10;99.90;;;;;;1916254;74;21498;-84
2022/07/12 11:01:54;;;;;;;3.83;0.95;;;28.20;99.90;;;;;;1909173;74;21152;-84
2022/07/12 11:04:49;;;;;;;1.15;0.70;;;28.30;99.90;;;;;;1903980;73;21046;-85
2022/07/12 11:07:41;;;;;;;2.25;0.90;;;28.40;99.90;;;;;;1904201;75;21095;-85
2022/07/12 11:10:32;;;;;;;1.98;0.82;;;28.50;99.90;;;;;;1904366;75;21130;-85
2022/07/12 11:13:24;;;;;;;4.62;0.90;;;28.60;99.90;;;;;;1904437;75;21048;-85
2022/07/12 11:16:17;;;;;;;1.95;0.72;;;28.60;99.90;;;;;;1904652;75;21601;-85
2022/07/12 11:19:09;;;;;;;2.70;0.82;;;28.70;99.90;;;;;;1927279;74;21091;-85
2022/07/12 11:22:02;;;;;;;3.12;0.70;;;28.90;99.90;;;;;;1904216;75;21106;-84
2022/07/12 11:24:55;;;;;;;3.92;0.90;;;29.00;99.90;;;;;;1904586;75;21091;-85
2022/07/12 11:27:48;;;;;;;1.52;0.70;;;29.10;99.90;;;;;;1926945;74;21170;-85
2022/07/12 11:30:49;;;;;;;3.60;0.80;;;29.30;99.90;;;;;;1926982;74;21193;-85
2022/07/12 11:33:42;;;;;;;3.00;0.85;;;29.40;99.90;;;;;;1904473;75;21059;-85
2022/07/12 11:36:35;;;;;;;3.05;0.80;;;29.30;99.90;;;;;;1904463;75;21063;-85
2022/07/12 11:39:33;;;;;;;4.47;0.90;;;29.30;99.90;;;;;;1916974;74;21105;-85
2022/07/12 11:42:25;;;;;;;3.98;0.70;;;29.40;99.90;;;;;;1929645;74;21129;-84
2022/07/12 11:45:17;;;;;;;1.87;0.95;;;29.30;99.90;;;;;;1904512;75;21136;-85
2022/07/12 11:48:10;;;;;;;4.42;1.10;;;29.30;99.90;;;;;;1904398;75;21050;-85
2022/07/12 11:51:05;;;;;;;2.95;0.70;;;29.50;99.90;;;;;;1919915;74;21084;-85
2022/07/12 11:53:56;;;;;;;4.95;0.65;;;29.50;99.90;;;;;;1904749;74;21153;-84
2022/07/12 11:56:48;;;;;;;1.95;0.70;;;29.60;99.90;;;;;;1904450;75;21075;-85
2022/07/12 11:59:39;;;;;;;0.88;0.68;;;29.60;99.90;;;;;;1904588;75;21064;-84
2022/07/12 12:02:31;;;;;;;1.98;0.70;;;29.70;99.90;;;;;;1904460;75;21103;-84
2022/07/12 12:05:23;;;;;;;3.70;0.88;;;29.70;99.90;;;;;;1916097;74;21167;-85
2022/07/12 12:08:16;;;;;;;1.65;0.70;;;29.60;99.90;;;;;;1915764;74;21071;-85
2022/07/12 12:11:07;;;;;;;1.52;0.65;;;29.80;99.90;;;;;;1915813;74;21071;-85
2022/07/12 12:14:01;;;;;;;3.58;0.70;;;29.90;99.90;;;;;;1918855;74;21102;-84
2022/07/12 12:16:52;;;;;;;2.70;0.70;;;29.90;99.90;;;;;;1904668;75;21124;-84
2022/07/12 12:19:44;;;;;;;2.02;0.65;;;29.90;99.90;;;;;;1926766;74;21150;-84
2022/07/12 12:22:37;;;;;;;1.70;0.80;;;29.90;99.90;;;;;;1904508;75;21086;-83
2022/07/12 12:25:30;;;;;;;2.05;0.70;;;29.90;99.80;;;;;;1925551;74;21577;-84
2022/07/12 12:28:22;;;;;;;2.30;0.88;;;30.00;99.60;;;;;;1904558;75;21146;-84
2022/07/12 12:31:14;;;;;;;3.25;1.12;;;30.20;99.30;;;;;;1904574;75;21063;-84
2022/07/12 12:34:12;;;;;;;2.00;0.60;;;30.30;98.90;;;;;;1904476;75;21063;-83
2022/07/12 12:37:07;;;;;;;1.50;0.70;;;30.20;98.60;;;;;;1904526;75;21573;-84
2022/07/12 12:39:59;;;;;;;2.15;0.70;;;30.20;98.80;;;;;;1904435;75;21177;-84
2022/07/12 12:42:51;;;;;;;1.60;0.70;;;30.40;98.50;;;;;;1904541;75;21142;-84
2022/07/12 12:45:52;;;;;;;4.50;0.82;;;30.40;98.10;;;;;;1914590;74;21125;-85
2022/07/12 12:48:49;;;;;;;3.15;0.70;;;30.50;97.70;;;;;;1908429;74;21070;-84
2022/07/12 12:51:58;;;;;;;1.62;0.47;;;30.60;97.10;;;;;;1904782;75;21111;-84
2022/07/12 12:54:50;;;;;;;2.58;0.70;;;30.50;96.80;;;;;;1904699;75;21040;-85
2022/07/12 12:57:41;;;;;;;7.15;0.70;;;30.60;96.60;;;;;;1904555;75;21111;-84
2022/07/12 13:00:35;;;;;;;1.37;0.55;;;30.40;96.70;;;;;;1904576;75;21044;-84
2022/07/12 13:03:26;;;;;;;1.42;0.55;;;30.50;96.30;;;;;;1927035;74;21138;-84
2022/07/12 13:06:17;;;;;;;3.25;0.65;;;30.50;96.00;;;;;;1904544;75;21124;-85
2022/07/12 13:09:09;;;;;;;1.17;0.60;;;30.60;96.00;;;;;;1904552;75;21125;-85
2022/07/12 13:12:01;;;;;;;0.85;0.60;;;30.70;95.30;;;;;;1904620;75;21587;-84
2022/07/12 13:14:53;;;;;;;0.65;0.50;;;30.60;95.00;;;;;;1904558;74;21234;-85
2022/07/12 13:17:45;;;;;;;1.47;0.50;;;30.60;95.10;;;;;;1904577;75;21117;-85
2022/07/12 13:20:36;;;;;;;3.35;0.53;;;30.60;94.90;;;;;;1904435;75;21088;-84
2022/07/12 13:23:28;;;;;;;2.62;0.70;;;30.70;94.30;;;;;;1904522;75;21657;-84
2022/07/12 13:26:20;;;;;;;3.27;0.70;;;30.70;94.50;;;;;;1926885;74;21141;-84
2022/07/12 13:29:13;;;;;;;1.27;0.80;;;30.80;94.30;;;;;;1904461;75;21264;-84
2022/07/12 13:32:06;;;;;;;2.70;0.50;;;30.90;93.20;;;;;;1904540;75;21099;-84
2022/07/12 13:34:59;;;;;;;1.85;0.65;;;30.90;93.10;;;;;;1904394;75;21044;-84
2022/07/12 13:37:50;;;;;;;0.88;0.57;;;31.00;92.60;;;;;;1915542;74;21056;-84
2022/07/12 13:40:43;;;;;;;2.12;0.60;;;31.00;92.10;;;;;;1909898;74;21083;-84
2022/07/12 13:43:36;;;;;;;5.22;0.68;;;31.30;91.90;;;;;;1927138;74;21047;-84
2022/07/12 13:46:27;;;;;;;2.77;0.60;;;31.40;91.40;;;;;;1921081;74;21592;-84
2022/07/12 13:49:19;;;;;;;1.75;0.70;;;31.40;90.90;;;;;;1904441;75;21095;-85
2022/07/12 13:52:11;;;;;;;3.33;0.70;;;31.40;90.80;;;;;;1926966;74;21124;-76
2022/07/12 13:55:03;;;;;;;7.75;0.70;;;31.70;90.40;;;;;;1927258;74;21137;-76
2022/07/12 13:57:54;;;;;;;1.37;0.50;;;31.90;89.70;;;;;;1904669;75;21086;-76
2022/07/12 14:00:46;;;;;;;3.22;0.70;;;32.10;89.10;;;;;;1917838;74;21097;-76
2022/07/12 14:03:38;;;;;;;0.55;0.50;;;32.20;87.20;;;;;;1938299;74;21092;-76
2022/07/12 14:06:31;;;;;;;2.95;0.50;;;32.50;85.70;;;;;;1911252;74;21131;-76
2022/07/12 14:09:22;;;;;;;1.67;0.50;;;32.40;82.90;;;;;;1904715;75;21095;-77
2022/07/12 14:12:14;;;;;;;2.77;0.80;;;32.60;83.10;;;;;;1906592;75;21082;-76
2022/07/12 14:15:35;;;;;;;1.22;0.62;;;32.80;83.00;;;;;;1916661;75;21059;-77
2022/07/12 14:18:12;;;;;;;1.45;0.80;;;32.80;82.60;;;;;;1932733;74;21510;-76
2022/07/12 14:21:04;;;;;;;2.27;0.42;;;33.30;81.60;;;;;;1914092;74;21084;-76
2022/07/12 14:23:55;;;;;;;1.57;0.40;;;33.20;79.20;;;;;;1943997;73;21518;-76
2022/07/12 14:26:46;;;;;;;2.08;0.50;;;33.30;79.40;;;;;;1917130;74;21267;-77
2022/07/12 14:29:39;;;;;;;1.57;0.70;;;33.40;78.50;;;;;;1924262;73;21176;-77
2022/07/12 14:32:31;;;;;;;2.55;0.40;;;33.60;77.80;;;;;;1933060;74;21113;-76
2022/07/12 14:35:22;;;;;;;3.20;0.55;;;33.80;77.40;;;;;;1904223;74;21127;-76
2022/07/12 14:38:14;;;;;;;1.70;0.60;;;34.10;75.80;;;;;;1904407;75;21203;-76
2022/07/12 14:41:05;;;;;;;3.42;0.60;;;34.10;74.70;;;;;;1904389;75;21054;-76
2022/07/12 14:43:57;;;;;;;2.15;0.60;;;34.10;74.50;;;;;;1927242;74;21059;-76
2022/07/12 14:46:52;;;;;;;0.40;0.30;;;33.80;74.20;;;;;;1905544;74;21103;-76
2022/07/12 14:49:43;;;;;;;1.55;0.60;;;33.90;73.60;;;;;;1919582;74;21129;-77
2022/07/12 14:52:35;;;;;;;2.30;0.60;;;34.20;73.20;;;;;;1904506;75;21146;-76
2022/07/12 14:55:26;;;;;;;0.85;0.53;;;34.70;71.30;;;;;;1927071;74;21067;-77
2022/07/12 14:58:20;;;;;;;0.60;0.55;;;34.70;71.20;;;;;;1904435;75;21048;-76
2022/07/12 15:01:12;;;;;;;1.40;0.40;;;34.40;70.70;;;;;;1904442;75;21054;-77
2022/07/12 15:04:04;;;;;;;1.62;0.50;;;34.40;71.20;;;;;;1904549;75;21157;-84
2022/07/12 15:06:55;;;;;;;1.55;0.60;;;34.70;70.30;;;;;;1927137;74;21060;-85
2022/07/12 15:09:47;;;;;;;0.50;0.50;;;34.50;70.10;;;;;;1904582;75;21067;-85
2022/07/12 15:12:38;;;;;;;0.90;0.60;;;34.50;70.10;;;;;;1904583;75;21204;-86
2022/07/12 15:15:29;;;;;;;0.80;0.57;;;34.50;69.80;;;;;;1904333;75;21165;-84